Time;durP1;ratioP1;P1;durP2;ratioP2;P2;SDS_P1;SDS_P2;PMS_P1;PMS_P2;Temp;Humidity;BMP_temperature;BMP_pressure;BME280_temperature;BME280_humidity;BME280_pressure;Samples;Min_cycle;Max_cycle;Signal;HPM_P1;HPM_P2
2023/03/23 00:01:10;;;;;;;2.72;1.73;;;;;;;;;;5031529;28;20447;-74
2023/03/23 00:03:35;;;;;;;1.73;1.20;;;;;;;;;;5032891;28;20100;-75
2023/03/23 00:06:10;;;;;;;2.25;1.20;;;;;;;;;;5032864;28;20057;-74
2023/03/23 00:08:45;;;;;;;1.83;1.20;;;;;;;;;;5031924;28;20025;-75
2023/03/23 00:11:14;;;;;;;2.15;1.48;;;;;;;;;;5031209;28;20496;-73
2023/03/23 00:13:41;;;;;;;2.75;1.20;;;;;;;;;;5033043;28;20401;-74
2023/03/23 00:16:16;;;;;;;3.72;1.38;;;;;;;;;;5031534;28;20036;-74
2023/03/23 00:18:52;;;;;;;3.22;1.10;;;;;;;;;;5032991;28;20040;-73
2023/03/23 00:21:18;;;;;;;2.55;1.20;;;;;;;;;;5033390;28;20485;-74
2023/03/23 00:23:44;;;;;;;2.42;1.40;;;;;;;;;;5032738;28;20503;-75
2023/03/23 00:26:10;;;;;;;2.63;1.20;;;;;;;;;;5031444;28;20421;-72
2023/03/23 00:28:35;;;;;;;2.00;1.00;;;;;;;;;;5032634;28;20068;-74
2023/03/23 00:31:05;;;;;;;1.70;1.00;;;;;;;;;;5031350;28;20021;-74
2023/03/23 00:33:37;;;;;;;5.22;1.30;;;;;;;;;;5032666;28;20259;-74
2023/03/23 00:36:03;;;;;;;2.42;1.25;;;;;;;;;;5032967;28;20066;-74
2023/03/23 00:38:28;;;;;;;1.55;1.02;;;;;;;;;;5032401;28;20033;-74
2023/03/23 00:40:53;;;;;;;2.83;1.40;;;;;;;;;;5032540;28;20392;-74
2023/03/23 00:43:20;;;;;;;2.80;1.30;;;;;;;;;;5032589;28;20630;-74
2023/03/23 00:45:52;;;;;;;1.15;0.93;;;;;;;;;;5034452;28;20021;-74
2023/03/23 00:48:19;;;;;;;2.15;1.15;;;;;;;;;;5036718;28;20029;-73
2023/03/23 00:50:44;;;;;;;2.45;1.10;;;;;;;;;;5036853;28;20601;-74
2023/03/23 00:53:09;;;;;;;2.95;1.17;;;;;;;;;;5036846;28;20053;-74
2023/03/23 00:55:34;;;;;;;1.98;1.00;;;;;;;;;;5036670;28;20024;-75
2023/03/23 00:58:00;;;;;;;2.95;1.00;;;;;;;;;;5036384;28;20034;-74
2023/03/23 01:00:26;;;;;;;1.57;0.87;;;;;;;;;;5036318;28;20053;-74
2023/03/23 01:02:52;;;;;;;1.52;1.10;;;;;;;;;;5036296;28;20259;-75
2023/03/23 01:05:18;;;;;;;2.20;1.00;;;;;;;;;;5036302;28;20433;-74
2023/03/23 01:07:44;;;;;;;2.42;1.10;;;;;;;;;;5034829;28;20049;-74
2023/03/23 01:10:12;;;;;;;1.75;1.00;;;;;;;;;;5036216;28;20029;-74
2023/03/23 01:12:38;;;;;;;1.85;0.82;;;;;;;;;;5036105;28;20053;-74
2023/03/23 01:15:03;;;;;;;1.23;0.80;;;;;;;;;;5034745;28;20068;-74
2023/03/23 01:17:29;;;;;;;1.88;1.10;;;;;;;;;;5035816;28;20112;-74
2023/03/23 01:19:54;;;;;;;1.73;1.00;;;;;;;;;;5036144;28;20061;-74
2023/03/23 01:22:19;;;;;;;7.10;1.17;;;;;;;;;;5035814;28;20297;-74
2023/03/23 01:24:44;;;;;;;1.40;0.90;;;;;;;;;;5035658;28;20476;-74
2023/03/23 01:27:10;;;;;;;2.37;0.90;;;;;;;;;;5035140;28;20026;-74
2023/03/23 01:29:35;;;;;;;1.63;0.90;;;;;;;;;;5035315;28;20362;-74
2023/03/23 01:32:01;;;;;;;1.33;0.90;;;;;;;;;;5035213;28;20056;-74
2023/03/23 01:34:27;;;;;;;1.20;0.77;;;;;;;;;;5032315;28;20026;-73
2023/03/23 01:36:52;;;;;;;1.77;0.90;;;;;;;;;;5033498;28;20098;-75
2023/03/23 01:39:17;;;;;;;0.97;0.80;;;;;;;;;;5032920;28;20096;-79
2023/03/23 01:41:43;;;;;;;1.10;0.82;;;;;;;;;;5034417;28;20258;-74
2023/03/23 01:44:31;;;;;;;0.80;0.75;;;;;;;;;;5035435;28;20027;-74
2023/03/23 01:46:57;;;;;;;3.03;0.90;;;;;;;;;;5035035;28;20028;-74
2023/03/23 01:49:27;;;;;;;1.42;1.00;;;;;;;;;;5035193;28;20108;-76
2023/03/23 01:51:56;;;;;;;1.83;0.85;;;;;;;;;;5035728;28;20029;-74
2023/03/23 01:54:22;;;;;;;2.15;0.70;;;;;;;;;;5035897;28;20080;-75
2023/03/23 01:56:55;;;;;;;1.00;0.80;;;;;;;;;;5035055;28;20025;-75
2023/03/23 01:59:23;;;;;;;0.65;0.60;;;;;;;;;;5035674;28;20036;-75
2023/03/23 02:01:48;;;;;;;0.93;0.73;;;;;;;;;;5035556;28;20045;-74
2023/03/23 02:04:16;;;;;;;0.90;0.70;;;;;;;;;;5034369;28;20459;-76
2023/03/23 02:06:44;;;;;;;0.75;0.60;;;;;;;;;;5035596;28;20113;-75
2023/03/23 02:09:10;;;;;;;1.40;0.80;;;;;;;;;;5033972;28;20026;-75
2023/03/23 02:11:36;;;;;;;0.88;0.80;;;;;;;;;;5034203;28;20028;-74
2023/03/23 02:14:02;;;;;;;0.77;0.55;;;;;;;;;;5035745;28;20030;-75
2023/03/23 02:16:40;;;;;;;2.22;0.80;;;;;;;;;;5035580;28;20026;-74
2023/03/23 02:19:37;;;;;;;1.15;0.70;;;;;;;;;;5033817;28;20033;-74
2023/03/23 02:22:12;;;;;;;1.00;0.80;;;;;;;;;;5035416;28;20082;-74
2023/03/23 02:24:56;;;;;;;0.88;0.70;;;;;;;;;;5034192;28;20025;-74
2023/03/23 02:27:47;;;;;;;0.82;0.70;;;;;;;;;;5035251;28;20064;-74
2023/03/23 02:30:43;;;;;;;4.68;0.73;;;;;;;;;;5031284;28;20056;-75
2023/03/23 02:33:27;;;;;;;1.25;0.60;;;;;;;;;;5035268;28;20030;-74
2023/03/23 02:35:57;;;;;;;2.25;0.90;;;;;;;;;;5035321;28;20029;-74
2023/03/23 02:38:35;;;;;;;2.45;1.35;;;;;;;;;;5034599;28;20444;-74
2023/03/23 02:41:02;;;;;;;1.38;0.55;;;;;;;;;;5035473;28;20044;-74
2023/03/23 02:43:32;;;;;;;0.80;0.70;;;;;;;;;;5035024;28;20025;-74
2023/03/23 02:45:58;;;;;;;0.50;0.50;;;;;;;;;;5035381;28;20033;-75
2023/03/23 02:48:28;;;;;;;2.03;0.60;;;;;;;;;;5033907;28;20068;-74
2023/03/23 02:50:54;;;;;;;0.70;0.70;;;;;;;;;;5034932;28;20033;-75
2023/03/23 02:53:24;;;;;;;1.17;0.63;;;;;;;;;;5034709;28;20142;-75
2023/03/23 02:55:52;;;;;;;1.80;0.90;;;;;;;;;;5034498;28;20021;-75
2023/03/23 02:58:18;;;;;;;1.35;0.80;;;;;;;;;;5032921;28;20033;-76
2023/03/23 03:00:44;;;;;;;0.80;0.68;;;;;;;;;;5032881;28;20060;-75
2023/03/23 03:03:14;;;;;;;0.60;0.50;;;;;;;;;;5032875;28;20063;-75
2023/03/23 03:06:01;;;;;;;1.02;0.65;;;;;;;;;;5034169;28;20029;-75
2023/03/23 03:08:41;;;;;;;0.52;0.52;;;;;;;;;;5033528;28;20388;-74
2023/03/23 03:11:09;;;;;;;0.85;0.68;;;;;;;;;;5034444;28;20025;-73
2023/03/23 03:13:47;;;;;;;1.15;0.90;;;;;;;;;;5033029;28;20049;-73
2023/03/23 03:16:25;;;;;;;1.23;0.80;;;;;;;;;;5033715;28;20055;-75
2023/03/23 03:19:11;;;;;;;0.90;0.68;;;;;;;;;;5033854;28;20068;-75
2023/03/23 03:21:41;;;;;;;1.23;0.57;;;;;;;;;;5033891;28;20025;-74
2023/03/23 03:24:10;;;;;;;1.05;0.80;;;;;;;;;;5033821;28;20025;-75
2023/03/23 03:26:39;;;;;;;1.08;0.80;;;;;;;;;;5032956;28;20025;-74
2023/03/23 03:29:05;;;;;;;1.83;0.80;;;;;;;;;;5033645;28;20025;-76
2023/03/23 03:31:35;;;;;;;5.40;0.80;;;;;;;;;;5033603;28;20044;-75
2023/03/23 03:34:03;;;;;;;2.08;0.90;;;;;;;;;;5033954;28;20068;-74
2023/03/23 03:36:34;;;;;;;1.45;0.90;;;;;;;;;;5032146;28;20037;-75
2023/03/23 03:39:07;;;;;;;1.67;0.90;;;;;;;;;;5033770;28;20038;-74
2023/03/23 03:41:33;;;;;;;1.00;0.70;;;;;;;;;;5032227;28;20424;-74
2023/03/23 03:43:58;;;;;;;2.28;1.05;;;;;;;;;;5033425;28;20061;-75
2023/03/23 03:46:26;;;;;;;4.30;1.00;;;;;;;;;;5033398;28;20106;-75
2023/03/23 03:48:52;;;;;;;2.20;1.02;;;;;;;;;;5033372;28;20262;-75
2023/03/23 03:51:17;;;;;;;2.97;1.05;;;;;;;;;;5033547;28;20029;-75
2023/03/23 03:53:42;;;;;;;2.53;1.20;;;;;;;;;;5031906;28;20572;-74
2023/03/23 03:56:08;;;;;;;1.48;1.08;;;;;;;;;;5033026;28;20738;-75
2023/03/23 03:58:35;;;;;;;1.02;0.82;;;;;;;;;;5033008;28;20021;-74
2023/03/23 04:01:02;;;;;;;2.25;1.08;;;;;;;;;;5033258;28;20033;-74
2023/03/23 04:03:27;;;;;;;2.35;1.08;;;;;;;;;;5031896;28;20029;-74
2023/03/23 04:05:55;;;;;;;1.83;1.05;;;;;;;;;;5033460;28;20429;-74
2023/03/23 04:08:22;;;;;;;1.55;0.82;;;;;;;;;;5031737;28;20025;-74
2023/03/23 04:10:48;;;;;;;2.80;1.20;;;;;;;;;;5033370;28;20022;-74
2023/03/23 04:13:13;;;;;;;3.95;1.10;;;;;;;;;;5031706;28;20024;-74
2023/03/23 04:15:38;;;;;;;1.38;1.08;;;;;;;;;;5032936;28;20032;-74
2023/03/23 04:18:05;;;;;;;3.47;1.40;;;;;;;;;;5032747;28;20473;-75
2023/03/23 04:20:31;;;;;;;2.65;1.15;;;;;;;;;;5038589;28;20021;-74
2023/03/23 04:22:56;;;;;;;2.35;1.10;;;;;;;;;;5039420;28;20100;-75
2023/03/23 04:25:21;;;;;;;2.03;1.17;;;;;;;;;;5039444;28;20034;-74
2023/03/23 04:27:52;;;;;;;2.75;1.40;;;;;;;;;;5039355;28;20017;-75
2023/03/23 04:30:21;;;;;;;2.75;1.20;;;;;;;;;;5039338;28;20542;-74
2023/03/23 04:32:50;;;;;;;1.80;1.27;;;;;;;;;;5039365;28;20029;-74
2023/03/23 04:35:16;;;;;;;5.50;1.50;;;;;;;;;;5038106;28;20072;-75
2023/03/23 04:37:42;;;;;;;2.33;1.20;;;;;;;;;;5039258;28;20029;-74
2023/03/23 04:40:11;;;;;;;2.70;1.30;;;;;;;;;;5039603;28;20081;-75
2023/03/23 04:42:38;;;;;;;4.07;1.52;;;;;;;;;;5037932;28;20075;-75
2023/03/23 04:45:05;;;;;;;2.55;1.25;;;;;;;;;;5037911;28;20025;-75
2023/03/23 04:47:33;;;;;;;2.60;1.20;;;;;;;;;;5039646;28;20101;-74
2023/03/23 04:50:01;;;;;;;3.70;1.40;;;;;;;;;;5039413;28;20029;-74
2023/03/23 04:52:28;;;;;;;7.15;1.42;;;;;;;;;;5039159;28;20104;-75
2023/03/23 04:54:53;;;;;;;5.43;1.58;;;;;;;;;;5039322;28;20028;-74
2023/03/23 04:57:18;;;;;;;5.53;1.20;;;;;;;;;;5038803;28;20037;-74
2023/03/23 04:59:44;;;;;;;2.88;1.50;;;;;;;;;;5039329;28;20040;-74
2023/03/23 05:02:12;;;;;;;2.80;1.27;;;;;;;;;;5039260;28;20396;-74
2023/03/23 05:04:38;;;;;;;2.70;1.30;;;;;;;;;;5037993;28;20021;-74
2023/03/23 05:07:04;;;;;;;3.92;1.30;;;;;;;;;;5039355;28;20035;-73
2023/03/23 05:09:29;;;;;;;2.75;1.27;;;;;;;;;;5038420;28;20036;-75
2023/03/23 05:11:55;;;;;;;3.08;1.27;;;;;;;;;;5039433;28;20030;-74
2023/03/23 05:14:21;;;;;;;3.53;1.45;;;;;;;;;;5039208;28;20105;-75
2023/03/23 05:16:48;;;;;;;2.70;1.30;;;;;;;;;;5038969;28;20056;-73
2023/03/23 05:19:14;;;;;;;4.25;1.30;;;;;;;;;;5039008;28;20460;-75
2023/03/23 05:21:39;;;;;;;2.03;1.30;;;;;;;;;;5039573;28;20056;-74
2023/03/23 05:24:05;;;;;;;5.00;1.48;;;;;;;;;;5039744;28;20029;-75
2023/03/23 05:26:32;;;;;;;3.85;1.27;;;;;;;;;;5039220;28;20025;-75
2023/03/23 05:28:58;;;;;;;7.82;3.17;;;;;;;;;;5038580;28;20025;-75
2023/03/23 05:31:24;;;;;;;7.32;3.20;;;;;;;;;;5033472;28;20488;-75
2023/03/23 05:33:50;;;;;;;4.07;2.10;;;;;;;;;;5034393;28;20029;-75
2023/03/23 05:36:15;;;;;;;3.70;2.10;;;;;;;;;;5034115;28;20037;-75
2023/03/23 05:38:45;;;;;;;4.05;1.50;;;;;;;;;;5035079;28;20392;-74
2023/03/23 05:41:10;;;;;;;2.15;1.25;;;;;;;;;;5035743;28;20434;-75
2023/03/23 05:43:36;;;;;;;1.77;1.20;;;;;;;;;;5035112;28;20032;-75
2023/03/23 05:46:01;;;;;;;3.15;1.20;;;;;;;;;;5035585;28;20116;-76
2023/03/23 05:48:26;;;;;;;1.83;1.20;;;;;;;;;;5035382;28;20102;-75
2023/03/23 05:50:52;;;;;;;6.45;1.60;;;;;;;;;;5035291;28;20369;-75
2023/03/23 05:53:17;;;;;;;4.57;1.30;;;;;;;;;;5035846;28;20045;-73
2023/03/23 05:55:42;;;;;;;5.38;1.50;;;;;;;;;;5033994;28;20265;-74
2023/03/23 05:58:07;;;;;;;2.43;1.40;;;;;;;;;;5035596;28;20109;-75
2023/03/23 06:00:34;;;;;;;4.90;1.30;;;;;;;;;;5033933;28;20290;-75
2023/03/23 06:03:00;;;;;;;3.65;1.60;;;;;;;;;;5033934;28;20259;-75
2023/03/23 06:05:26;;;;;;;3.92;1.75;;;;;;;;;;5035226;28;20021;-74
2023/03/23 06:07:52;;;;;;;5.65;1.67;;;;;;;;;;5033705;28;20021;-75
2023/03/23 06:10:17;;;;;;;2.97;1.70;;;;;;;;;;5035136;28;20497;-74
2023/03/23 06:12:43;;;;;;;2.25;1.30;;;;;;;;;;5035178;28;20500;-75
2023/03/23 06:15:09;;;;;;;3.33;1.70;;;;;;;;;;5034145;28;20436;-75
2023/03/23 06:17:36;;;;;;;5.55;1.70;;;;;;;;;;5035001;28;20025;-75
2023/03/23 06:20:04;;;;;;;2.75;1.52;;;;;;;;;;5035005;28;20108;-75
2023/03/23 06:22:29;;;;;;;5.35;2.72;;;;;;;;;;5034946;28;20024;-75
2023/03/23 06:24:56;;;;;;;3.90;1.47;;;;;;;;;;5035108;28;20417;-75
2023/03/23 06:27:22;;;;;;;4.55;1.98;;;;;;;;;;5034669;28;20255;-74
2023/03/23 06:29:48;;;;;;;4.60;1.45;;;;;;;;;;5034746;28;20539;-75
2023/03/23 06:32:14;;;;;;;6.55;1.60;;;;;;;;;;5034689;28;20030;-74
2023/03/23 06:34:43;;;;;;;5.72;1.80;;;;;;;;;;5034471;28;20096;-74
2023/03/23 06:37:09;;;;;;;4.18;1.67;;;;;;;;;;5034358;28;20154;-77
2023/03/23 06:39:34;;;;;;;7.93;1.48;;;;;;;;;;5034563;28;20025;-74
2023/03/23 06:42:00;;;;;;;4.70;1.85;;;;;;;;;;5032726;28;20481;-75
2023/03/23 06:44:25;;;;;;;4.72;1.67;;;;;;;;;;5032312;28;20026;-74
2023/03/23 06:46:51;;;;;;;2.95;1.48;;;;;;;;;;5032905;28;20032;-74
2023/03/23 06:49:16;;;;;;;1.67;1.17;;;;;;;;;;5034740;28;20022;-74
2023/03/23 06:51:41;;;;;;;10.30;1.30;;;;;;;;;;5034180;28;20069;-75
2023/03/23 06:54:07;;;;;;;2.57;1.20;;;;;;;;;;5034941;28;20297;-79
2023/03/23 06:56:32;;;;;;;1.00;0.90;;;;;;;;;;5034987;28;20270;-77
2023/03/23 06:58:57;;;;;;;1.63;0.90;;;;;;;;;;5033495;28;20452;-78
2023/03/23 07:01:23;;;;;;;1.55;0.98;;;;;;;;;;5036714;28;20086;-77
2023/03/23 07:03:49;;;;;;;1.63;0.88;;;;;;;;;;5034564;28;20423;-78
2023/03/23 07:06:15;;;;;;;1.00;0.88;;;;;;;;;;5032901;28;20420;-73
2023/03/23 07:08:40;;;;;;;1.50;0.90;;;;;;;;;;5034181;28;20145;-73
2023/03/23 07:11:06;;;;;;;7.40;1.00;;;;;;;;;;5033862;28;20453;-73
2023/03/23 07:13:31;;;;;;;1.33;0.98;;;;;;;;;;5032548;28;20025;-73
2023/03/23 07:15:57;;;;;;;1.25;0.70;;;;;;;;;;5034570;28;20532;-79
2023/03/23 07:18:23;;;;;;;3.60;1.00;;;;;;;;;;5033999;28;20098;-74
2023/03/23 07:20:52;;;;;;;2.50;0.98;;;;;;;;;;5033506;28;20048;-72
2023/03/23 07:23:18;;;;;;;1.58;0.88;;;;;;;;;;5033851;28;20036;-76
2023/03/23 07:25:44;;;;;;;5.47;1.00;;;;;;;;;;5033490;28;20029;-73
2023/03/23 07:28:10;;;;;;;0.77;0.75;;;;;;;;;;5033280;28;20374;-71
2023/03/23 07:30:35;;;;;;;1.15;0.93;;;;;;;;;;5033649;28;20029;-72
2023/03/23 07:33:05;;;;;;;0.68;0.68;;;;;;;;;;5033319;28;20391;-77
2023/03/23 07:35:31;;;;;;;1.30;0.90;;;;;;;;;;5033829;28;20112;-74
2023/03/23 07:37:56;;;;;;;3.15;1.10;;;;;;;;;;5033360;28;20517;-72
2023/03/23 07:40:22;;;;;;;2.25;1.00;;;;;;;;;;5033184;28;20072;-73
2023/03/23 07:42:53;;;;;;;1.17;0.77;;;;;;;;;;5033160;28;20120;-73
2023/03/23 07:45:18;;;;;;;3.97;0.90;;;;;;;;;;5033423;28;20749;-73
2023/03/23 07:47:43;;;;;;;0.82;0.82;;;;;;;;;;5033009;28;20029;-74
2023/03/23 07:50:09;;;;;;;1.70;1.02;;;;;;;;;;5032989;28;20517;-74
2023/03/23 07:52:36;;;;;;;1.10;0.90;;;;;;;;;;5032959;28;20021;-72
2023/03/23 07:55:02;;;;;;;1.35;0.90;;;;;;;;;;5032567;28;20029;-72
2023/03/23 07:57:29;;;;;;;2.17;1.02;;;;;;;;;;5032833;28;20033;-71
2023/03/23 07:59:56;;;;;;;3.88;1.00;;;;;;;;;;5033277;28;20033;-72
2023/03/23 08:02:21;;;;;;;2.38;1.00;;;;;;;;;;5032933;28;20083;-73
2023/03/23 08:04:47;;;;;;;1.55;0.90;;;;;;;;;;5033124;28;20470;-73
2023/03/23 08:07:12;;;;;;;3.88;0.85;;;;;;;;;;5033141;28;20025;-74
2023/03/23 08:09:38;;;;;;;0.85;0.75;;;;;;;;;;5032804;28;20060;-72
2023/03/23 08:12:04;;;;;;;4.78;1.23;;;;;;;;;;5032694;28;20025;-74
2023/03/23 08:14:30;;;;;;;1.20;0.90;;;;;;;;;;5032784;28;20392;-73
2023/03/23 08:16:55;;;;;;;2.63;1.10;;;;;;;;;;5032530;28;20113;-73
2023/03/23 08:19:21;;;;;;;3.00;1.10;;;;;;;;;;5032614;28;20029;-72
2023/03/23 08:21:47;;;;;;;4.35;0.90;;;;;;;;;;5032978;28;20075;-73
2023/03/23 08:24:13;;;;;;;1.38;0.90;;;;;;;;;;5032680;28;20438;-72
2023/03/23 08:26:38;;;;;;;1.65;0.82;;;;;;;;;;5032875;28;20021;-72
2023/03/23 08:29:04;;;;;;;1.55;0.80;;;;;;;;;;5032815;28;20473;-73
2023/03/23 08:31:29;;;;;;;1.35;1.00;;;;;;;;;;5032579;28;20056;-72
2023/03/23 08:33:56;;;;;;;0.90;0.80;;;;;;;;;;5032909;28;20103;-73
2023/03/23 08:36:22;;;;;;;1.52;0.95;;;;;;;;;;5031252;28;20029;-74
2023/03/23 08:38:47;;;;;;;2.45;0.90;;;;;;;;;;5032604;28;20025;-73
2023/03/23 08:41:12;;;;;;;1.17;0.87;;;;;;;;;;5032565;28;20546;-73
2023/03/23 08:43:39;;;;;;;2.20;0.95;;;;;;;;;;5031670;28;20746;-73
2023/03/23 08:46:09;;;;;;;2.50;0.88;;;;;;;;;;5032872;28;20053;-77
2023/03/23 08:48:35;;;;;;;1.50;1.05;;;;;;;;;;5032770;28;20028;-76
2023/03/23 08:51:00;;;;;;;2.20;0.80;;;;;;;;;;5032305;28;20396;-73
2023/03/23 08:53:30;;;;;;;1.67;0.80;;;;;;;;;;5032215;28;20432;-75
2023/03/23 08:55:55;;;;;;;1.00;0.90;;;;;;;;;;5031166;28;20511;-78
2023/03/23 08:58:22;;;;;;;1.40;0.98;;;;;;;;;;5032254;28;20029;-72
2023/03/23 09:00:47;;;;;;;2.78;1.10;;;;;;;;;;5032067;28;20033;-74
2023/03/23 09:03:13;;;;;;;1.37;1.00;;;;;;;;;;5032007;28;20036;-73
2023/03/23 09:05:42;;;;;;;1.20;0.98;;;;;;;;;;5030706;28;20350;-74
2023/03/23 09:08:08;;;;;;;1.42;1.00;;;;;;;;;;5035706;28;20021;-74
2023/03/23 09:10:33;;;;;;;3.97;1.02;;;;;;;;;;5036124;28;20021;-75
2023/03/23 09:12:59;;;;;;;2.22;0.95;;;;;;;;;;5035643;28;20040;-74
2023/03/23 09:15:24;;;;;;;3.35;0.90;;;;;;;;;;5035820;28;20025;-74
2023/03/23 09:17:53;;;;;;;1.42;1.00;;;;;;;;;;5035242;28;20021;-73
2023/03/23 09:20:22;;;;;;;2.33;0.80;;;;;;;;;;5035348;28;20024;-73
2023/03/23 09:22:51;;;;;;;2.60;1.20;;;;;;;;;;5034092;28;20036;-73
2023/03/23 09:25:21;;;;;;;1.60;1.00;;;;;;;;;;5035222;28;20092;-72
2023/03/23 09:27:52;;;;;;;3.03;0.90;;;;;;;;;;5035294;28;20067;-76
2023/03/23 09:30:19;;;;;;;4.28;1.00;;;;;;;;;;5035292;28;20076;-72
2023/03/23 09:32:45;;;;;;;1.65;0.90;;;;;;;;;;5035158;28;20028;-73
2023/03/23 09:35:13;;;;;;;3.20;1.20;;;;;;;;;;5033581;28;20025;-71
2023/03/23 09:37:40;;;;;;;4.32;1.10;;;;;;;;;;5035215;28;20029;-73
2023/03/23 09:40:13;;;;;;;1.63;1.02;;;;;;;;;;5034968;28;20032;-73
2023/03/23 09:42:56;;;;;;;1.13;0.82;;;;;;;;;;5035286;28;20078;-74
2023/03/23 09:45:24;;;;;;;1.85;1.17;;;;;;;;;;5035336;28;20030;-74
2023/03/23 09:48:26;;;;;;;2.30;1.10;;;;;;;;;;5033671;28;20152;-72
2023/03/23 09:50:58;;;;;;;7.63;1.23;;;;;;;;;;5033697;28;20037;-73
2023/03/23 09:53:39;;;;;;;4.72;1.10;;;;;;;;;;5033791;28;20534;-73
2023/03/23 09:56:12;;;;;;;1.92;1.08;;;;;;;;;;5034815;28;20037;-74
2023/03/23 09:58:46;;;;;;;1.13;0.98;;;;;;;;;;5035053;28;20018;-73
2023/03/23 10:01:26;;;;;;;1.73;1.00;;;;;;;;;;5033501;28;20404;-72
2023/03/23 10:04:00;;;;;;;2.67;0.85;;;;;;;;;;5034625;28;20033;-73
2023/03/23 10:06:25;;;;;;;;;;;;;;;;;;5035154;28;20029;-73
2023/03/23 10:08:53;;;;;;;1.47;1.00;;;;;;;;;;5034581;28;20007;-73
2023/03/23 10:11:33;;;;;;;1.42;1.00;;;;;;;;;;5033367;28;20484;-72
2023/03/23 10:14:14;;;;;;;2.53;1.02;;;;;;;;;;5035044;28;20503;-76
2023/03/23 10:17:03;;;;;;;2.20;1.00;;;;;;;;;;5034680;28;20492;-73
2023/03/23 10:19:45;;;;;;;4.53;0.98;;;;;;;;;;5034745;28;20460;-73
2023/03/23 10:22:14;;;;;;;1.10;0.90;;;;;;;;;;5034815;28;20045;-74
2023/03/23 10:24:49;;;;;;;1.35;0.90;;;;;;;;;;5034579;28;20064;-74
2023/03/23 10:27:43;;;;;;;1.40;0.90;;;;;;;;;;5034488;28;20017;-74
2023/03/23 10:30:20;;;;;;;1.23;0.90;;;;;;;;;;5034668;28;20028;-74
2023/03/23 10:33:13;;;;;;;2.30;0.90;;;;;;;;;;5033571;28;20029;-76
2023/03/23 10:35:44;;;;;;;2.25;1.10;;;;;;;;;;5034984;28;20021;-72
2023/03/23 10:38:16;;;;;;;13.55;5.00;;;;;;;;;;5034760;28;20108;-72
2023/03/23 10:40:53;;;;;;;1.55;1.13;;;;;;;;;;5034459;28;20028;-79
2023/03/23 10:43:20;;;;;;;6.78;2.47;;;;;;;;;;5034588;28;20499;-73
2023/03/23 10:45:50;;;;;;;4.95;2.50;;;;;;;;;;5034259;28;20501;-73
2023/03/23 10:48:22;;;;;;;5.95;2.25;;;;;;;;;;5034320;28;20037;-72
2023/03/23 10:50:52;;;;;;;11.35;2.70;;;;;;;;;;5034439;28;20053;-73
2023/03/23 10:53:31;;;;;;;2.83;1.02;;;;;;;;;;5034052;28;20029;-73
2023/03/23 10:55:58;;;;;;;6.10;2.17;;;;;;;;;;5032757;28;20032;-73
2023/03/23 10:58:29;;;;;;;1.50;1.10;;;;;;;;;;5033985;28;20088;-74
2023/03/23 11:00:56;;;;;;;1.50;1.23;;;;;;;;;;5033935;28;20045;-73
2023/03/23 11:03:39;;;;;;;1.70;1.10;;;;;;;;;;5033866;28;20025;-72
2023/03/23 11:06:10;;;;;;;1.60;1.00;;;;;;;;;;5033810;28;20025;-73
2023/03/23 11:08:48;;;;;;;3.03;1.45;;;;;;;;;;5033658;28;20018;-73
2023/03/23 11:11:24;;;;;;;2.60;1.10;;;;;;;;;;5032385;28;20410;-73
2023/03/23 11:13:56;;;;;;;1.33;1.02;;;;;;;;;;5033734;28;20037;-72
2023/03/23 11:16:27;;;;;;;8.18;2.38;;;;;;;;;;5033731;28;20392;-73
2023/03/23 11:18:53;;;;;;;4.72;1.70;;;;;;;;;;5033493;28;20059;-72
2023/03/23 11:21:21;;;;;;;1.45;1.08;;;;;;;;;;5033438;28;20037;-72
2023/03/23 11:23:50;;;;;;;5.35;2.15;;;;;;;;;;5033639;28;20021;-72
2023/03/23 11:26:26;;;;;;;1.65;0.90;;;;;;;;;;5033569;28;20034;-72
2023/03/23 11:28:54;;;;;;;2.65;1.58;;;;;;;;;;5032845;28;20059;-72
2023/03/23 11:31:27;;;;;;;3.75;1.35;;;;;;;;;;5033622;28;20033;-72
2023/03/23 11:33:55;;;;;;;1.90;1.13;;;;;;;;;;5033785;28;20048;-72
2023/03/23 11:36:29;;;;;;;1.75;0.80;;;;;;;;;;5033469;28;20040;-74
2023/03/23 11:38:57;;;;;;;1.15;0.90;;;;;;;;;;5032717;28;20021;-73
2023/03/23 11:41:23;;;;;;;2.58;1.30;;;;;;;;;;5031610;28;20109;-77
2023/03/23 11:43:51;;;;;;;5.88;1.80;;;;;;;;;;5033437;28;20385;-72
2023/03/23 11:46:25;;;;;;;4.18;1.10;;;;;;;;;;5033079;28;20029;-72
2023/03/23 11:48:57;;;;;;;2.15;1.30;;;;;;;;;;5033106;28;20029;-72
2023/03/23 11:51:34;;;;;;;1.35;0.88;;;;;;;;;;5033157;28;20032;-72
2023/03/23 11:54:47;;;;;;;1.38;0.90;;;;;;;;;;5033405;28;20436;-72
2023/03/23 11:57:13;;;;;;;3.33;1.10;;;;;;;;;;5031364;28;20040;-72
2023/03/23 11:59:39;;;;;;;2.45;1.38;;;;;;;;;;5033271;28;20055;-72
2023/03/23 12:02:52;;;;;;;4.97;1.52;;;;;;;;;;5032918;28;20114;-74
2023/03/23 12:05:33;;;;;;;1.20;0.80;;;;;;;;;;5033563;28;20108;-78
2023/03/23 12:08:22;;;;;;;1.98;0.93;;;;;;;;;;5032789;28;20014;-71
2023/03/23 12:11:04;;;;;;;6.05;0.95;;;;;;;;;;5032173;28;20025;-73
2023/03/23 12:13:55;;;;;;;2.33;1.00;;;;;;;;;;5032345;28;20044;-72
2023/03/23 12:16:49;;;;;;;1.17;0.82;;;;;;;;;;5032864;28;20026;-72
2023/03/23 12:19:36;;;;;;;3.63;0.90;;;;;;;;;;5033002;28;20029;-72
2023/03/23 12:22:17;;;;;;;1.27;0.77;;;;;;;;;;5032796;28;20031;-71
2023/03/23 12:25:09;;;;;;;1.13;0.90;;;;;;;;;;5032839;28;20428;-73
2023/03/23 12:28:04;;;;;;;2.42;0.77;;;;;;;;;;5031345;28;20056;-72
2023/03/23 12:30:45;;;;;;;2.53;0.80;;;;;;;;;;5033024;28;20117;-72
2023/03/23 12:33:35;;;;;;;0.80;0.70;;;;;;;;;;5032990;28;20022;-72
2023/03/23 12:36:04;;;;;;;0.80;0.70;;;;;;;;;;5032731;28;20022;-73
2023/03/23 12:39:05;;;;;;;0.88;0.70;;;;;;;;;;5032666;28;20104;-73
2023/03/23 12:41:48;;;;;;;1.50;0.90;;;;;;;;;;5025788;28;20037;-73
2023/03/23 12:44:15;;;;;;;1.83;0.98;;;;;;;;;;5036650;28;20076;-73
2023/03/23 12:47:01;;;;;;;1.17;0.90;;;;;;;;;;5036158;28;20033;-72
2023/03/23 12:49:59;;;;;;;0.90;0.70;;;;;;;;;;5036508;28;20503;-72
2023/03/23 12:52:45;;;;;;;1.13;0.70;;;;;;;;;;5033957;28;20389;-73
2023/03/23 12:55:34;;;;;;;1.33;0.70;;;;;;;;;;5036695;28;20033;-70
2023/03/23 12:58:07;;;;;;;0.90;0.80;;;;;;;;;;5035734;28;20044;-71
2023/03/23 13:00:50;;;;;;;1.83;0.80;;;;;;;;;;5036170;28;20029;-71
2023/03/23 13:03:42;;;;;;;1.65;0.90;;;;;;;;;;5036479;28;20025;-72
2023/03/23 13:06:18;;;;;;;2.15;0.70;;;;;;;;;;5036441;28;20071;-73
2023/03/23 13:08:57;;;;;;;2.17;1.20;;;;;;;;;;5036385;28;20422;-72
2023/03/23 13:11:34;;;;;;;1.42;0.77;;;;;;;;;;5036268;28;20485;-71
2023/03/23 13:14:15;;;;;;;1.70;0.90;;;;;;;;;;5036111;28;20040;-72
2023/03/23 13:17:18;;;;;;;1.35;0.80;;;;;;;;;;5035659;28;20033;-72
2023/03/23 13:20:16;;;;;;;2.90;0.90;;;;;;;;;;5034581;28;20033;-72
2023/03/23 13:22:53;;;;;;;2.75;0.80;;;;;;;;;;5036037;28;20029;-72
2023/03/23 13:25:35;;;;;;;3.55;0.80;;;;;;;;;;5036006;28;20449;-72
2023/03/23 13:28:02;;;;;;;0.88;0.80;;;;;;;;;;5035793;28;20025;-72
2023/03/23 13:30:28;;;;;;;1.55;1.00;;;;;;;;;;5035697;28;20104;-72
2023/03/23 13:33:05;;;;;;;6.75;1.05;;;;;;;;;;5035644;28;20167;-72
2023/03/23 13:35:37;;;;;;;3.55;0.90;;;;;;;;;;5035800;28;20029;-72
2023/03/23 13:38:23;;;;;;;1.52;0.90;;;;;;;;;;5035501;28;20037;-71
2023/03/23 13:40:50;;;;;;;1.40;0.80;;;;;;;;;;5035840;28;20532;-71
2023/03/23 13:43:32;;;;;;;2.38;0.95;;;;;;;;;;5035561;28;20025;-72
2023/03/23 13:46:10;;;;;;;4.07;0.90;;;;;;;;;;5035803;28;20511;-71
2023/03/23 13:48:45;;;;;;;1.40;0.80;;;;;;;;;;5035494;28;20017;-72
2023/03/23 13:51:31;;;;;;;1.80;1.00;;;;;;;;;;5035491;28;20025;-72
2023/03/23 13:54:40;;;;;;;5.05;0.98;;;;;;;;;;5035479;28;20044;-72
2023/03/23 13:57:21;;;;;;;5.28;0.90;;;;;;;;;;5032290;28;20038;-71
2023/03/23 13:59:54;;;;;;;5.20;0.90;;;;;;;;;;5035259;28;20104;-72
2023/03/23 14:02:33;;;;;;;1.38;0.90;;;;;;;;;;5034770;28;20037;-71
2023/03/23 14:05:32;;;;;;;1.98;1.02;;;;;;;;;;5035686;28;20026;-72
2023/03/23 14:08:03;;;;;;;5.55;1.02;;;;;;;;;;5032455;28;20103;-71
2023/03/23 14:10:43;;;;;;;3.00;0.90;;;;;;;;;;5035165;28;20385;-71
2023/03/23 14:13:20;;;;;;;1.55;1.05;;;;;;;;;;5034984;28;20100;-72
2023/03/23 14:15:58;;;;;;;3.25;1.20;;;;;;;;;;5034880;28;20030;-71
2023/03/23 14:18:29;;;;;;;1.45;0.80;;;;;;;;;;5034712;28;20396;-72
2023/03/23 14:20:55;;;;;;;2.15;0.90;;;;;;;;;;5034791;28;20029;-71
2023/03/23 14:23:22;;;;;;;1.92;0.90;;;;;;;;;;5034752;28;20022;-72
2023/03/23 14:26:06;;;;;;;0.77;0.77;;;;;;;;;;5034698;28;20026;-72
2023/03/23 14:28:32;;;;;;;3.53;1.00;;;;;;;;;;5034684;28;20100;-72
2023/03/23 14:30:58;;;;;;;0.75;0.75;;;;;;;;;;5034800;28;20467;-72
2023/03/23 14:33:25;;;;;;;2.63;0.70;;;;;;;;;;5034639;28;20061;-72
2023/03/23 14:35:51;;;;;;;1.50;0.80;;;;;;;;;;5034433;28;20472;-72
2023/03/23 14:38:24;;;;;;;1.80;1.00;;;;;;;;;;5034183;28;20079;-71
2023/03/23 14:40:49;;;;;;;1.40;0.68;;;;;;;;;;5034813;28;20431;-72
2023/03/23 14:43:20;;;;;;;5.07;0.82;;;;;;;;;;5032939;28;20124;-72
2023/03/23 14:45:53;;;;;;;2.63;0.80;;;;;;;;;;5034286;28;20029;-72
2023/03/23 14:48:20;;;;;;;2.15;0.90;;;;;;;;;;5034337;28;20028;-71
2023/03/23 14:50:57;;;;;;;4.40;0.80;;;;;;;;;;5034069;28;20026;-72
2023/03/23 14:53:31;;;;;;;2.50;0.98;;;;;;;;;;5034173;28;20025;-72
2023/03/23 14:56:06;;;;;;;1.23;0.80;;;;;;;;;;5033289;28;20025;-71
2023/03/23 14:58:31;;;;;;;2.63;1.10;;;;;;;;;;5033925;28;20504;-71
2023/03/23 15:01:33;;;;;;;2.22;1.10;;;;;;;;;;5034454;28;20104;-72
2023/03/23 15:04:01;;;;;;;3.33;1.20;;;;;;;;;;5033388;28;20037;-72
2023/03/23 15:06:33;;;;;;;1.20;0.90;;;;;;;;;;5033944;28;20404;-72